Observation data for Post on 10/17/2019      Previous  Date       Current Mesonet Observations  Soil Data  Daily Summary Page  Observations in Plain Language
KPT1 170500Z 21006KT 12/M03 A3012 RMK A01 T01241032  RH  034%=      5-min Rain = 0
KPT1 170505Z 21006KT 12/M03 A3012 RMK A01 T01241033  RH  034%=      5-min Rain = 0
KPT1 170510Z 21005KT 12/M03 A3012 RMK A01 T01231033  RH  034%=      5-min Rain = 0
KPT1 170515Z 20006KT 12/M03 A3011 RMK A01 T01211033  RH  034%=      5-min Rain = 0
KPT1 170520Z 20008KT 12/M03 A3011 RMK A01 T01241034  RH  033%=      5-min Rain = 0
KPT1 170525Z 20007KT 13/M04 A3011 RMK A01 T01291035  RH  032%=      5-min Rain = 0
KPT1 170530Z 20007KT 13/M04 A3011 RMK A01 T01321036  RH  031%=      5-min Rain = 0
KPT1 170535Z 20007KT 13/M04 A3011 RMK A01 T01341035  RH  031%=      5-min Rain = 0
KPT1 170540Z 20007KT 14/M04 A3011 RMK A01 T01361035  RH  031%=      5-min Rain = 0
KPT1 170545Z 20006KT 14/M03 A3011 RMK A01 T01361034  RH  031%=      5-min Rain = 0
KPT1 170550Z 20006KT 14/M04 A301 RMK A01 T01361035  RH  031%=      5-min Rain = 0
KPT1 170555Z 21006KT 13/M03 A301 RMK A01 T01341033  RH  031%=      5-min Rain = 0
KPT1 170600Z 20007KT 13/M03 A301 RMK A01 T01331032  RH  032%=      5-min Rain = 0
KPT1 170605Z 20006KT 13/M03 A301 RMK A01 T01331031  RH  032%=      5-min Rain = 0
KPT1 170610Z 21007KT 13/M03 A301 RMK A01 T01311031  RH  033%=      5-min Rain = 0
KPT1 170615Z 21007KT 13/M03 A301 RMK A01 T01281031  RH  033%=      5-min Rain = 0
KPT1 170620Z 21008KT 13/M03 A3009 RMK A01 T01261031  RH  034%=      5-min Rain = 0
KPT1 170625Z 20007KT 12/M03 A3009 RMK A01 T01241032  RH  034%=      5-min Rain = 0
KPT1 170630Z 20007KT 12/M03 A3009 RMK A01 T01231032  RH  034%=      5-min Rain = 0
KPT1 170635Z 20007KT 12/M03 A3009 RMK A01 T01221032  RH  034%=      5-min Rain = 0
KPT1 170640Z 21006KT 12/M03 A3009 RMK A01 T01211032  RH  034%=      5-min Rain = 0
KPT1 170645Z 21006KT 12/M03 A3009 RMK A01 T01211031  RH  035%=      5-min Rain = 0
KPT1 170650Z 21005KT 12/M03 A3009 RMK A01 T01201030  RH  035%=      5-min Rain = 0
KPT1 170655Z 21005KT 12/M03 A3009 RMK A01 T01201030  RH  035%=      5-min Rain = 0
KPT1 170700Z 22005KT 12/M03 A3009 RMK A01 T01201029  RH  035%=      5-min Rain = 0
KPT1 170705Z 22005KT 12/M03 A3009 RMK A01 T01211029  RH  035%=      5-min Rain = 0
KPT1 170710Z 23004KT 12/M03 A3009 RMK A01 T01221029  RH  035%=      5-min Rain = 0
KPT1 170715Z 26002KT 12/M03 A301 RMK A01 T01191028  RH  036%=      5-min Rain = 0
KPT1 170720Z 26003KT 11/M03 A3009 RMK A01 T01131028  RH  037%=      5-min Rain = 0
KPT1 170725Z 24003KT 11/M03 A3009 RMK A01 T01141029  RH  037%=      5-min Rain = 0
KPT1 170730Z 24003KT 12/M03 A3009 RMK A01 T01181030  RH  036%=      5-min Rain = 0
KPT1 170735Z 25002KT 12/M03 A3009 RMK A01 T01171030  RH  036%=      5-min Rain = 0
KPT1 170740Z 28001KT 11/M03 A3009 RMK A01 T01091027  RH  039%=      5-min Rain = 0
KPT1 170745Z 27002KT 10/M03 A3009 RMK A01 T01011027  RH  041%=      5-min Rain = 0
KPT1 170750Z 23002KT 10/M03 A3009 RMK A01 T00991027  RH  041%=      5-min Rain = 0
KPT1 170755Z 20003KT 10/M03 A3009 RMK A01 T00981026  RH  042%=      5-min Rain = 0
KPT1 170800Z 23003KT 10/M03 A3009 RMK A01 T00981028  RH  041%=      5-min Rain = 0
KPT1 170805Z 25003KT 10/M03 A3009 RMK A01 T00971028  RH  042%=      5-min Rain = 0
KPT1 170810Z 24004KT 09/M03 A3009 RMK A01 T00941028  RH  042%=      5-min Rain = 0
KPT1 170815Z 22004KT 09/M03 A3009 RMK A01 T00901028  RH  044%=      5-min Rain = 0
KPT1 170820Z 21004KT 09/M03 A3008 RMK A01 T00881027  RH  045%=      5-min Rain = 0
KPT1 170825Z 21003KT 09/M03 A3008 RMK A01 T00871027  RH  045%=      5-min Rain = 0
KPT1 170830Z 23004KT 09/M03 A3008 RMK A01 T00881027  RH  045%=      5-min Rain = 0
KPT1 170835Z 23004KT 09/M03 A3008 RMK A01 T00901027  RH  044%=      5-min Rain = 0
KPT1 170840Z 23004KT 09/M03 A3008 RMK A01 T00911028  RH  043%=      5-min Rain = 0
KPT1 170845Z 23003KT 09/M03 A3008 RMK A01 T00921029  RH  043%=      5-min Rain = 0
KPT1 170850Z 26002KT 09/M03 A3008 RMK A01 T00911029  RH  043%=      5-min Rain = 0
KPT1 170855Z 27003KT 09/M03 A3008 RMK A01 T00851027  RH  046%=      5-min Rain = 0
KPT1 170900Z 25005KT 08/M03 A3008 RMK A01 T00791025  RH  048%=      5-min Rain = 0
KPT1 170905Z 25004KT 08/M03 A3007 RMK A01 T00811025  RH  047%=      5-min Rain = 0
KPT1 170910Z 24003KT 08/M03 A3007 RMK A01 T00811026  RH  047%=      5-min Rain = 0
KPT1 170915Z 24003KT 08/M03 A3007 RMK A01 T00801026  RH  047%=      5-min Rain = 0
KPT1 170920Z 24005KT 08/M03 A3007 RMK A01 T00821026  RH  047%=      5-min Rain = 0
KPT1 170925Z 23005KT 08/M03 A3007 RMK A01 T00831026  RH  047%=      5-min Rain = 0
KPT1 170930Z 24005KT 08/M03 A3007 RMK A01 T00821026  RH  047%=      5-min Rain = 0
KPT1 170935Z 24005KT 08/M03 A3007 RMK A01 T00821026  RH  047%=      5-min Rain = 0
KPT1 170940Z 22005KT 08/M03 A3007 RMK A01 T00791025  RH  048%=      5-min Rain = 0
KPT1 170945Z 22004KT 08/M03 A3008 RMK A01 T00791025  RH  048%=      5-min Rain = 0
KPT1 170950Z 22004KT 08/M03 A3007 RMK A01 T00781025  RH  048%=      5-min Rain = 0
KPT1 170955Z 23004KT 08/M03 A3007 RMK A01 T00791025  RH  048%=      5-min Rain = 0
KPT1 171000Z 23005KT 08/M03 A3007 RMK A01 T00821025  RH  047%=      5-min Rain = 0
KPT1 171005Z 22005KT 08/M03 A3007 RMK A01 T00821025  RH  047%=      5-min Rain = 0
KPT1 171010Z 21004KT 08/M03 A3006 RMK A01 T00821026  RH  047%=      5-min Rain = 0
KPT1 171015Z 22004KT 08/M03 A3006 RMK A01 T00821026  RH  047%=      5-min Rain = 0
KPT1 171020Z 23005KT 09/M03 A3006 RMK A01 T00851026  RH  046%=      5-min Rain = 0
KPT1 171025Z 22004KT 09/M03 A3006 RMK A01 T00861026  RH  046%=      5-min Rain = 0
KPT1 171030Z 22002KT 09/M03 A3006 RMK A01 T00851026  RH  046%=      5-min Rain = 0
KPT1 171035Z 21001KT 08/M03 A3006 RMK A01 T00821026  RH  047%=      5-min Rain = 0
KPT1 171040Z 28001KT 08/M03 A3007 RMK A01 T00761026  RH  049%=      5-min Rain = 0
KPT1 171045Z 34001KT 07/M02 A3007 RMK A01 T00651022  RH  054%=      5-min Rain = 0
KPT1 171050Z 31002KT 07/M02 A3007 RMK A01 T00671022  RH  054%=      5-min Rain = 0
KPT1 171055Z 25004KT 07/M02 A3006 RMK A01 T00721023  RH  051%=      5-min Rain = 0
KPT1 171100Z 23004KT 08/M02 A3006 RMK A01 T00791023  RH  049%=      5-min Rain = 0
KPT1 171105Z 23005KT 08/M02 A3006 RMK A01 T00801023  RH  048%=      5-min Rain = 0
KPT1 171110Z 25004KT 08/M02 A3006 RMK A01 T00821022  RH  048%=      5-min Rain = 0
KPT1 171115Z 27003KT 08/M02 A3006 RMK A01 T00811023  RH  048%=      5-min Rain = 0
KPT1 171120Z 27002KT 08/M02 A3007 RMK A01 T00771023  RH  050%=      5-min Rain = 0
KPT1 171125Z 26004KT 08/M02 A3007 RMK A01 T00781021  RH  050%=      5-min Rain = 0
KPT1 171130Z 30002KT 08/M02 A3007 RMK A01 T00771022  RH  050%=      5-min Rain = 0
KPT1 171135Z 31002KT 08/M02 A3007 RMK A01 T00751021  RH  051%=      5-min Rain = 0
KPT1 171140Z 33001KT 08/M02 A3007 RMK A01 T00791022  RH  049%=      5-min Rain = 0
KPT1 171145Z 08001KT 08/M02 A3007 RMK A01 T00781022  RH  050%=      5-min Rain = 0
KPT1 171150Z 26000KT 07/M02 A3007 RMK A01 T00731021  RH  051%=      5-min Rain = 0
KPT1 171155Z 23001KT 07/M02 A3007 RMK A01 T00691021  RH  053%=      5-min Rain = 0
KPT1 171200Z 22002KT 07/M02 A3007 RMK A01 T00691021  RH  053%=      5-min Rain = 0
KPT1 171205Z 22004KT 08/M02 A3007 RMK A01 T00761021  RH  051%=      5-min Rain = 0
KPT1 171210Z 20004KT 08/M02 A3007 RMK A01 T00781021  RH  050%=      5-min Rain = 0
KPT1 171215Z 19003KT 08/M02 A3006 RMK A01 T00781021  RH  050%=      5-min Rain = 0
KPT1 171220Z 21004KT 08/M02 A3006 RMK A01 T00761020  RH  051%=      5-min Rain = 0
KPT1 171225Z 21005KT 07/M02 A3006 RMK A01 T00731020  RH  052%=      5-min Rain = 0
KPT1 171230Z 22004KT 08/M02 A3006 RMK A01 T00771021  RH  050%=      5-min Rain = 0
KPT1 171235Z 23005KT 08/M02 A3006 RMK A01 T00791021  RH  050%=      5-min Rain = 0
KPT1 171240Z 23003KT 08/M02 A3006 RMK A01 T00791021  RH  049%=      5-min Rain = 0
KPT1 171245Z 22003KT 08/M02 A3006 RMK A01 T00781021  RH  050%=      5-min Rain = 0
KPT1 171250Z 24003KT 08/M02 A3006 RMK A01 T00781021  RH  050%=      5-min Rain = 0
KPT1 171255Z 23003KT 08/M02 A3006 RMK A01 T00781021  RH  050%=      5-min Rain = 0
KPT1 171300Z 23004KT 08/M02 A3005 RMK A01 T00771021  RH  050%=      5-min Rain = 0
KPT1 171305Z 17002KT 07/M02 A3005 RMK A01 T00721021  RH  052%=      5-min Rain = 0
KPT1 171310Z 19003KT 07/M02 A3005 RMK A01 T00671019  RH  055%=      5-min Rain = 0
KPT1 171315Z 20004KT 07/M02 A3005 RMK A01 T00671018  RH  055%=      5-min Rain = 0
KPT1 171320Z 19005KT 07/M02 A3005 RMK A01 T00701016  RH  055%=      5-min Rain = 0
KPT1 171325Z 21006KT 08/M02 A3005 RMK A01 T00771015  RH  053%=      5-min Rain = 0
KPT1 171330Z 20004KT 09/M02 A3005 RMK A01 T00861015  RH  049%=      5-min Rain = 0
KPT1 171335Z 20002KT 09/M02 A3005 RMK A01 T00931015  RH  047%=      5-min Rain = 0
KPT1 171340Z 20000KT 10/M01 A3005 RMK A01 T00961012  RH  047%=      5-min Rain = 0
KPT1 171345Z 18001KT 10/M01 A3005 RMK A01 T01011011  RH  046%=      5-min Rain = 0
KPT1 171350Z 17002KT 11/M01 A3005 RMK A01 T01111011  RH  043%=      5-min Rain = 0
KPT1 171355Z 19003KT 12/M01 A3005 RMK A01 T01181013  RH  041%=      5-min Rain = 0
KPT1 171400Z 20003KT 12/M01 A3006 RMK A01 T01201013  RH  040%=      5-min Rain = 0
KPT1 171405Z 23003KT 12/M02 A3006 RMK A01 T01221015  RH  039%=      5-min Rain = 0
KPT1 171410Z 21004KT 12/M02 A3006 RMK A01 T01241015  RH  039%=      5-min Rain = 0
KPT1 171415Z 21002KT 13/M01 A3005 RMK A01 T01301014  RH  037%=      5-min Rain = 0
KPT1 171420Z 24003KT 14/M02 A3006 RMK A01 T01351015  RH  036%=      5-min Rain = 0
KPT1 171425Z 28003KT 14/M01 A3006 RMK A01 T01401011  RH  036%=      5-min Rain = 0
KPT1 171430Z 25003KT 15/M01 A3006 RMK A01 T01461012  RH  034%=      5-min Rain = 0
KPT1 171435Z 25005KT 15/M02 A3006 RMK A01 T01501018  RH  032%=      5-min Rain = 0
KPT1 171440Z 24005KT 15/M02 A3006 RMK A01 T01531018  RH  031%=      5-min Rain = 0
KPT1 171445Z 23005KT 16/M02 A3005 RMK A01 T01571019  RH  030%=      5-min Rain = 0
KPT1 171450Z 22005KT 16/M02 A3005 RMK A01 T01601018  RH  030%=      5-min Rain = 0
KPT1 171455Z 21006KT 16/M02 A3005 RMK A01 T01631019  RH  029%=      5-min Rain = 0
KPT1 171500Z 22004KT 17/M02 A3005 RMK A01 T01671018  RH  029%=      5-min Rain = 0
KPT1 171505Z 22006KT 17/M02 A3005 RMK A01 T01721019  RH  027%=      5-min Rain = 0
KPT1 171510Z 23006KT 18/M02 A3005 RMK A01 T01771019  RH  026%=      5-min Rain = 0
KPT1 171515Z 22005KT 18/M02 A3005 RMK A01 T01811016  RH  026%=      5-min Rain = 0
KPT1 171520Z 22006KT 18/M02 A3005 RMK A01 T01841018  RH  025%=      5-min Rain = 0
KPT1 171525Z 23006KT 19/M02 A3006 RMK A01 T01891018  RH  025%=      5-min Rain = 0
KPT1 171530Z 23008KT 19/M02 A3006 RMK A01 T01901020  RH  024%=      5-min Rain = 0
KPT1 171535Z 23007KT 19/M02 A3006 RMK A01 T01911020  RH  024%=      5-min Rain = 0
KPT1 171540Z 24009G14KT 19/M02 A3005 RMK A01 T01931022  RH  023%=      5-min Rain = 0
KPT1 171545Z 25009KT 19/M02 A3006 RMK A01 T01921023  RH  023%=      5-min Rain = 0
KPT1 171550Z 24009KT 20/M02 A3006 RMK A01 T01951021  RH  023%=      5-min Rain = 0
KPT1 171555Z 25008KT 20/M02 A3006 RMK A01 T01971020  RH  023%=      5-min Rain = 0
KPT1 171600Z 25009KT 20/M02 A3005 RMK A01 T01971019  RH  023%=      5-min Rain = 0
KPT1 171605Z 25011KT 20/M02 A3005 RMK A01 T01961020  RH  023%=      5-min Rain = 0
KPT1 171610Z 25010KT 20/M02 A3005 RMK A01 T01961017  RH  024%=      5-min Rain = 0
KPT1 171615Z 24008G14KT 20/M02 A3005 RMK A01 T01971016  RH  024%=      5-min Rain = 0
KPT1 171620Z 24008KT 20/M02 A3005 RMK A01 T02001016  RH  023%=      5-min Rain = 0
KPT1 171625Z 25007KT 20/M02 A3005 RMK A01 T02001017  RH  023%=      5-min Rain = 0
KPT1 171630Z 24007KT 20/M02 A3005 RMK A01 T02021017  RH  023%=      5-min Rain = 0
KPT1 171635Z 22006KT 21/M02 A3004 RMK A01 T02061017  RH  022%=      5-min Rain = 0
KPT1 171640Z 21006G11KT 21/M02 A3004 RMK A01 T02111018  RH  022%=      5-min Rain = 0
KPT1 171645Z 24007KT 21/M02 A3004 RMK A01 T02121019  RH  021%=      5-min Rain = 0
KPT1 171650Z 24008KT 21/M02 A3004 RMK A01 T02131021  RH  021%=      5-min Rain = 0
KPT1 171655Z 24007KT 21/M02 A3004 RMK A01 T02131022  RH  021%=      5-min Rain = 0
KPT1 171700Z 21006KT 22/M02 A3003 RMK A01 T02201021  RH  020%=      5-min Rain = 0
KPT1 171705Z 23008KT 22/M02 A3003 RMK A01 T02201022  RH  020%=      5-min Rain = 0
KPT1 171710Z 22007KT 22/M02 A3003 RMK A01 T02231020  RH  020%=      5-min Rain = 0
KPT1 171715Z 22007KT 23/M02 A3003 RMK A01 T02271015  RH  020%=      5-min Rain = 0
KPT1 171720Z 21006G11KT 23/M01 A3003 RMK A01 T02301013  RH  020%=      5-min Rain = 0
KPT1 171725Z 21006KT 23/M01 A3003 RMK A01 T02311008  RH  021%=      5-min Rain = 0
KPT1 171730Z 20008KT 23/M00 A3002 RMK A01 T02331002  RH  021%=      5-min Rain = 0
KPT1 171735Z 18009G14KT 23/M00 A3002 RMK A01 T02341002  RH  021%=      5-min Rain = 0
KPT1 171740Z 21008G13KT 24/01 A3002 RMK A01 T02350008  RH  023%=      5-min Rain = 0
KPT1 171745Z 22007G12KT 24/02 A3002 RMK A01 T02360015  RH  024%=      5-min Rain = 0
KPT1 171750Z 20008KT 24/02 A3001 RMK A01 T02360015  RH  024%=      5-min Rain = 0
KPT1 171755Z 19008KT 24/02 A3001 RMK A01 T02370023  RH  025%=      5-min Rain = 0
KPT1 171800Z 22008KT 24/03 A30 RMK A01 T02360032  RH  027%=      5-min Rain = 0
KPT1 171805Z 19008KT 24/04 A30 RMK A01 T02400035  RH  027%=      5-min Rain = 0
KPT1 171810Z 20008G14KT 24/04 A30 RMK A01 T02410038  RH  027%=      5-min Rain = 0
KPT1 171815Z 17008G14KT 24/04 A2999 RMK A01 T02430039  RH  027%=      5-min Rain = 0
KPT1 171820Z 20010KT 24/05 A2999 RMK A01 T02440047  RH  028%=      5-min Rain = 0
KPT1 171825Z 21010G16KT 25/05 A2999 RMK A01 T02460047  RH  028%=      5-min Rain = 0
KPT1 171830Z 21008KT 25/05 A2998 RMK A01 T02480045  RH  027%=      5-min Rain = 0
KPT1 171835Z 20006KT 25/04 A2998 RMK A01 T02510041  RH  026%=      5-min Rain = 0
KPT1 171840Z 19007G12KT 26/04 A2998 RMK A01 T02570041  RH  025%=      5-min Rain = 0
KPT1 171845Z 20008KT 25/04 A2997 RMK A01 T02540037  RH  025%=      5-min Rain = 0
KPT1 171850Z 21005KT 26/04 A2997 RMK A01 T02560038  RH  025%=      5-min Rain = 0
KPT1 171855Z 19008G13KT 25/04 A2996 RMK A01 T02540039  RH  025%=      5-min Rain = 0
KPT1 171900Z 19008G13KT 26/05 A2996 RMK A01 T02600045  RH  026%=      5-min Rain = 0
KPT1 171905Z 19008KT 26/05 A2996 RMK A01 T02640048  RH  026%=      5-min Rain = 0
KPT1 171910Z 19009G16KT 26/05 A2995 RMK A01 T02620050  RH  026%=      5-min Rain = 0
KPT1 171915Z 19010KT 26/05 A2995 RMK A01 T02600051  RH  027%=      5-min Rain = 0
KPT1 171920Z 17010G17KT 26/05 A2995 RMK A01 T02630050  RH  026%=      5-min Rain = 0
KPT1 171925Z 20010G20KT 26/04 A2994 RMK A01 T02620044  RH  025%=      5-min Rain = 0
KPT1 171930Z 19007G13KT 27/05 A2994 RMK A01 T02680045  RH  025%=      5-min Rain = 0
KPT1 171935Z 19010G17KT 27/04 A2994 RMK A01 T02710043  RH  024%=      5-min Rain = 0
KPT1 171940Z 19011KT 26/04 A2993 RMK A01 T02640039  RH  024%=      5-min Rain = 0
KPT1 171945Z 18009G15KT 27/04 A2993 RMK A01 T02680038  RH  023%=      5-min Rain = 0
KPT1 171950Z 18010KT 27/04 A2993 RMK A01 T02690043  RH  024%=      5-min Rain = 0
KPT1 171955Z 17010KT 27/04 A2992 RMK A01 T02710041  RH  023%=      5-min Rain = 0
KPT1 172000Z 18010G15KT 27/04 A2992 RMK A01 T02710041  RH  023%=      5-min Rain = 0
KPT1 172005Z 19011G16KT 27/04 A2992 RMK A01 T02700040  RH  023%=      5-min Rain = 0
KPT1 172010Z 18010G16KT 27/04 A2991 RMK A01 T02730039  RH  023%=      5-min Rain = 0
KPT1 172015Z 17011G16KT 27/03 A2991 RMK A01 T02730028  RH  021%=      5-min Rain = 0
KPT1 172020Z 18011G17KT 27/03 A2991 RMK A01 T02740030  RH  021%=      5-min Rain = 0
KPT1 172025Z 18009KT 27/03 A2991 RMK A01 T02740033  RH  022%=      5-min Rain = 0
KPT1 172030Z 19011G17KT 27/03 A299 RMK A01 T02740029  RH  021%=      5-min Rain = 0
KPT1 172035Z 18009KT 27/03 A299 RMK A01 T02730030  RH  021%=      5-min Rain = 0
KPT1 172040Z 20010G17KT 28/02 A299 RMK A01 T02760022  RH  020%=      5-min Rain = 0
KPT1 172045Z 21008KT 28/02 A299 RMK A01 T02770019  RH  019%=      5-min Rain = 0
KPT1 172050Z 20010G15KT 28/02 A299 RMK A01 T02770018  RH  019%=      5-min Rain = 0
KPT1 172055Z 19008G13KT 28/02 A2989 RMK A01 T02750022  RH  020%=      5-min Rain = 0
KPT1 172100Z 18009G15KT 28/02 A2989 RMK A01 T02750022  RH  020%=      5-min Rain = 0
KPT1 172105Z 19010KT 28/03 A2989 RMK A01 T02770030  RH  021%=      5-min Rain = 0
KPT1 172110Z 18010KT 28/03 A2989 RMK A01 T02780029  RH  021%=      5-min Rain = 0
KPT1 172115Z 20009G14KT 28/03 A2989 RMK A01 T02780027  RH  020%=      5-min Rain = 0
KPT1 172120Z 22007KT 28/03 A2989 RMK A01 T02770028  RH  021%=      5-min Rain = 0
KPT1 172125Z 20007KT 28/03 A2989 RMK A01 T02810030  RH  020%=      5-min Rain = 0
KPT1 172130Z 19005KT 28/03 A2989 RMK A01 T02830030  RH  020%=      5-min Rain = 0
KPT1 172135Z 20009KT 28/03 A2988 RMK A01 T02820034  RH  021%=      5-min Rain = 0
KPT1 172140Z 19008KT 28/03 A2988 RMK A01 T02780034  RH  021%=      5-min Rain = 0
KPT1 172145Z 18008KT 28/04 A2988 RMK A01 T02770036  RH  022%=      5-min Rain = 0
KPT1 172150Z 18008KT 28/04 A2988 RMK A01 T02790037  RH  022%=      5-min Rain = 0
KPT1 172155Z 18009G15KT 28/04 A2988 RMK A01 T02810041  RH  022%=      5-min Rain = 0
KPT1 172200Z 20007KT 28/04 A2987 RMK A01 T02800043  RH  022%=      5-min Rain = 0
KPT1 172205Z 18008KT 28/04 A2987 RMK A01 T02800044  RH  023%=      5-min Rain = 0
KPT1 172210Z 21008KT 28/04 A2987 RMK A01 T02790040  RH  022%=      5-min Rain = 0
KPT1 172215Z 22009G15KT 28/04 A2987 RMK A01 T02760040  RH  022%=      5-min Rain = 0
KPT1 172220Z 19006KT 28/04 A2987 RMK A01 T02770041  RH  023%=      5-min Rain = 0
KPT1 172225Z 19009KT 28/04 A2987 RMK A01 T02770041  RH  022%=      5-min Rain = 0
KPT1 172230Z 19006KT 28/04 A2987 RMK A01 T02750039  RH  022%=      5-min Rain = 0
KPT1 172235Z 18009G14KT 28/04 A2987 RMK A01 T02750042  RH  023%=      5-min Rain = 0
KPT1 172240Z 18010KT 27/04 A2987 RMK A01 T02730041  RH  023%=      5-min Rain = 0
KPT1 172245Z 18009KT 27/04 A2987 RMK A01 T02710042  RH  023%=      5-min Rain = 0
KPT1 172250Z 20006G11KT 27/04 A2986 RMK A01 T02720043  RH  023%=      5-min Rain = 0
KPT1 172255Z 19007KT 27/04 A2986 RMK A01 T02730042  RH  023%=      5-min Rain = 0
KPT1 172300Z 19009G14KT 27/04 A2986 RMK A01 T02700039  RH  023%=      5-min Rain = 0
KPT1 172305Z 19009KT 27/04 A2986 RMK A01 T02680039  RH  023%=      5-min Rain = 0
KPT1 172310Z 18009KT 27/04 A2986 RMK A01 T02660038  RH  023%=      5-min Rain = 0
KPT1 172315Z 19010KT 27/04 A2986 RMK A01 T02650035  RH  023%=      5-min Rain = 0
KPT1 172320Z 19007KT 26/04 A2986 RMK A01 T02640035  RH  023%=      5-min Rain = 0
KPT1 172325Z 17007KT 26/04 A2986 RMK A01 T02630037  RH  024%=      5-min Rain = 0
KPT1 172330Z 18009KT 26/04 A2986 RMK A01 T02610035  RH  024%=      5-min Rain = 0
KPT1 172335Z 19007KT 26/04 A2986 RMK A01 T02590037  RH  024%=      5-min Rain = 0
KPT1 172340Z 18008KT 26/04 A2986 RMK A01 T02570036  RH  024%=      5-min Rain = 0
KPT1 172345Z 18008KT 25/04 A2986 RMK A01 T02540035  RH  025%=      5-min Rain = 0
KPT1 172350Z 18007KT 25/04 A2986 RMK A01 T02510035  RH  025%=      5-min Rain = 0
KPT1 172355Z 17007KT 25/04 A2985 RMK A01 T02470036  RH  026%=      5-min Rain = 0
KPT1 180000Z 17007KT 24/04 A2985 RMK A01 T02430035  RH  026%=      5-min Rain = 0
KPT1 180005Z 17007KT 24/03 A2985 RMK A01 T02410034  RH  027%=      5-min Rain = 0
KPT1 180010Z 17006KT 24/04 A2985 RMK A01 T02360035  RH  027%=      5-min Rain = 0
KPT1 180015Z 17005KT 23/04 A2985 RMK A01 T02320035  RH  028%=      5-min Rain = 0
KPT1 180020Z 17005KT 23/04 A2985 RMK A01 T02290035  RH  029%=      5-min Rain = 0
KPT1 180025Z 17006KT 23/04 A2985 RMK A01 T02250036  RH  029%=      5-min Rain = 0
KPT1 180030Z 17005KT 22/04 A2985 RMK A01 T02230036  RH  030%=      5-min Rain = 0
KPT1 180035Z 17005KT 22/04 A2985 RMK A01 T02190036  RH  031%=      5-min Rain = 0
KPT1 180040Z 18005KT 22/04 A2985 RMK A01 T02180036  RH  031%=      5-min Rain = 0
KPT1 180045Z 18005KT 22/04 A2985 RMK A01 T02150036  RH  031%=      5-min Rain = 0
KPT1 180050Z 18005KT 21/04 A2985 RMK A01 T02140036  RH  032%=      5-min Rain = 0
KPT1 180055Z 17005KT 21/04 A2985 RMK A01 T02130036  RH  032%=      5-min Rain = 0
KPT1 180100Z 17006KT 21/04 A2985 RMK A01 T02100035  RH  032%=      5-min Rain = 0
KPT1 180105Z 17006KT 21/03 A2985 RMK A01 T02080034  RH  032%=      5-min Rain = 0
KPT1 180110Z 17006KT 21/03 A2985 RMK A01 T02070034  RH  033%=      5-min Rain = 0
KPT1 180115Z 16006KT 21/03 A2985 RMK A01 T02060033  RH  032%=      5-min Rain = 0
KPT1 180120Z 13007KT 20/04 A2985 RMK A01 T02010035  RH  034%=      5-min Rain = 0
KPT1 180125Z 14007KT 20/04 A2985 RMK A01 T01950035  RH  035%=      5-min Rain = 0
KPT1 180130Z 14008KT 20/04 A2985 RMK A01 T01990040  RH  036%=      5-min Rain = 0
KPT1 180135Z 15009KT 21/04 A2985 RMK A01 T02050044  RH  036%=      5-min Rain = 0
KPT1 180140Z 15007KT 21/05 A2985 RMK A01 T02060047  RH  036%=      5-min Rain = 0
KPT1 180145Z 16007KT 20/05 A2985 RMK A01 T02040047  RH  036%=      5-min Rain = 0
KPT1 180150Z 16007KT 20/05 A2985 RMK A01 T02020047  RH  037%=      5-min Rain = 0
KPT1 180155Z 16007KT 20/05 A2985 RMK A01 T02000046  RH  037%=      5-min Rain = 0
KPT1 180200Z 16006KT 20/05 A2985 RMK A01 T01960046  RH  038%=      5-min Rain = 0
KPT1 180205Z 16007KT 19/05 A2985 RMK A01 T01940046  RH  039%=      5-min Rain = 0
KPT1 180210Z 16007KT 19/05 A2986 RMK A01 T01940046  RH  038%=      5-min Rain = 0
KPT1 180215Z 16007KT 20/05 A2986 RMK A01 T01950046  RH  038%=      5-min Rain = 0
KPT1 180220Z 16007KT 19/05 A2986 RMK A01 T01930046  RH  039%=      5-min Rain = 0
KPT1 180225Z 17007KT 19/05 A2986 RMK A01 T01920045  RH  039%=      5-min Rain = 0
KPT1 180230Z 17006KT 19/05 A2986 RMK A01 T01890046  RH  040%=      5-min Rain = 0
KPT1 180235Z 17006KT 19/05 A2986 RMK A01 T01870046  RH  040%=      5-min Rain = 0
KPT1 180240Z 16006KT 19/05 A2986 RMK A01 T01850046  RH  040%=      5-min Rain = 0
KPT1 180245Z 16007KT 19/05 A2986 RMK A01 T01850045  RH  040%=      5-min Rain = 0
KPT1 180250Z 16007KT 19/04 A2986 RMK A01 T01850043  RH  040%=      5-min Rain = 0
KPT1 180255Z 16009KT 19/04 A2986 RMK A01 T01910037  RH  037%=      5-min Rain = 0
KPT1 180300Z 16010KT 19/03 A2986 RMK A01 T01920031  RH  035%=      5-min Rain = 0
KPT1 180305Z 16009G15KT 19/03 A2986 RMK A01 T01930027  RH  034%=      5-min Rain = 0
KPT1 180310Z 16011G16KT 19/02 A2986 RMK A01 T01930022  RH  032%=      5-min Rain = 0
KPT1 180315Z 16010KT 19/02 A2987 RMK A01 T01930019  RH  032%=      5-min Rain = 0
KPT1 180320Z 16010KT 19/02 A2987 RMK A01 T01920018  RH  032%=      5-min Rain = 0
KPT1 180325Z 16009G14KT 19/02 A2987 RMK A01 T01910018  RH  032%=      5-min Rain = 0
KPT1 180330Z 17009KT 19/02 A2987 RMK A01 T01900016  RH  032%=      5-min Rain = 0
KPT1 180335Z 17008KT 19/02 A2987 RMK A01 T01880016  RH  032%=      5-min Rain = 0
KPT1 180340Z 17008KT 19/02 A2987 RMK A01 T01870015  RH  032%=      5-min Rain = 0
KPT1 180345Z 17008KT 19/02 A2987 RMK A01 T01860015  RH  032%=      5-min Rain = 0
KPT1 180350Z 17008G13KT 18/02 A2987 RMK A01 T01840016  RH  033%=      5-min Rain = 0
KPT1 180355Z 17008G13KT 18/02 A2987 RMK A01 T01820015  RH  033%=      5-min Rain = 0
KPT1 180400Z 17010KT 18/01 A2988 RMK A01 T01830014  RH  033%=      5-min Rain = 0
KPT1 180405Z 17011KT 18/01 A2988 RMK A01 T01840012  RH  032%=      5-min Rain = 0
KPT1 180410Z 17011G16KT 18/01 A2988 RMK A01 T01840010  RH  031%=      5-min Rain = 0
KPT1 180415Z 17012G18KT 18/01 A2988 RMK A01 T01840009  RH  031%=      5-min Rain = 0
KPT1 180420Z 17012G18KT 18/01 A2987 RMK A01 T01840008  RH  031%=      5-min Rain = 0
KPT1 180425Z 17011G18KT 18/01 A2988 RMK A01 T01830007  RH  031%=      5-min Rain = 0
KPT1 180430Z 17009KT 18/01 A2988 RMK A01 T01800008  RH  032%=      5-min Rain = 0
KPT1 180435Z 17008KT 18/01 A2987 RMK A01 T01770008  RH  032%=      5-min Rain = 0
KPT1 180440Z 18008KT 18/01 A2987 RMK A01 T01760009  RH  033%=      5-min Rain = 0
KPT1 180445Z 18009G14KT 17/01 A2987 RMK A01 T01730008  RH  033%=      5-min Rain = 0
KPT1 180450Z 18009KT 17/01 A2987 RMK A01 T01720007  RH  033%=      5-min Rain = 0
KPT1 180455Z 17009KT 17/01 A2987 RMK A01 T01710006  RH  033%=      5-min Rain = 0

Page generated in 0.0281 seconds.